Time;durP1;ratioP1;P1;durP2;ratioP2;P2;SDS_P1;SDS_P2;PMS_P1;PMS_P2;Temp;Humidity;BMP_temperature;BMP_pressure;BME280_temperature;BME280_humidity;BME280_pressure;Samples;Min_cycle;Max_cycle;Signal;HPM_P1;HPM_P2
2022/03/31 00:00:28;;;;;;;;;;;6.50;99.90;;;;;;5036771;28;19931;-72
2022/03/31 00:02:55;;;;;;;;;;;6.40;99.90;;;;;;5036373;28;19914;-72
2022/03/31 00:05:20;;;;;;;;;;;6.40;99.90;;;;;;5037055;28;19914;-72
2022/03/31 00:07:47;;;;;;;;;;;6.40;99.90;;;;;;5037001;28;20027;-72
2022/03/31 00:10:12;;;;;;;;;;;6.40;99.90;;;;;;5036437;28;20419;-72
2022/03/31 00:12:38;;;;;;;;;;;6.40;99.90;;;;;;5036624;28;19952;-72
2022/03/31 00:15:04;;;;;;;;;;;6.40;99.90;;;;;;5036897;28;19916;-71
2022/03/31 00:17:29;;;;;;;;;;;6.50;99.90;;;;;;5035212;28;19909;-73
2022/03/31 00:19:55;;;;;;;;;;;6.50;99.90;;;;;;5036742;28;19954;-73
2022/03/31 00:22:21;;;;;;;;;;;6.50;99.90;;;;;;5036609;28;19963;-74
2022/03/31 00:24:46;;;;;;;;;;;6.50;99.90;;;;;;5036394;28;19913;-74
2022/03/31 00:27:12;;;;;;;;;;;6.40;99.90;;;;;;5035985;28;20055;-74
2022/03/31 00:29:37;;;;;;;;;;;6.40;99.90;;;;;;5036043;28;20007;-74
2022/03/31 00:32:04;;;;;;;;;;;6.40;99.90;;;;;;5035973;28;19916;-74
2022/03/31 00:34:30;;;;;;;;;;;6.40;99.90;;;;;;5035867;28;19948;-74
2022/03/31 00:36:56;;;;;;;;;;;6.40;99.90;;;;;;5036497;28;20239;-74
2022/03/31 00:39:34;;;;;;;;;;;6.40;99.90;;;;;;5034644;28;19916;-74
2022/03/31 00:42:00;;;;;;;;;;;6.30;99.90;;;;;;5035742;28;19913;-74
2022/03/31 00:44:26;;;;;;;;;;;6.30;99.90;;;;;;5035692;28;19916;-74
2022/03/31 00:46:53;;;;;;;;;;;6.20;99.90;;;;;;5036009;28;19909;-74
2022/03/31 00:49:19;;;;;;;;;;;6.20;99.90;;;;;;5035650;28;19909;-74
2022/03/31 00:51:45;;;;;;;;;;;6.20;99.90;;;;;;5034404;28;19909;-74
2022/03/31 00:54:12;;;;;;;;;;;6.20;99.90;;;;;;5035551;28;19935;-74
2022/03/31 00:56:37;;;;;;;;;;;6.20;99.90;;;;;;5035565;28;19913;-74
2022/03/31 00:59:04;;;;;;;;;;;6.10;99.90;;;;;;5035796;28;19967;-74
2022/03/31 01:01:31;;;;;;;;;;;6.10;99.90;;;;;;5035377;28;19913;-74
2022/03/31 01:03:57;;;;;;;;;;;6.10;99.90;;;;;;5035346;28;20345;-74
2022/03/31 01:06:23;;;;;;;;;;;6.10;99.90;;;;;;5035385;28;19916;-74
2022/03/31 01:08:48;;;;;;;;;;;6.10;99.90;;;;;;5035307;28;19909;-74
2022/03/31 01:11:14;;;;;;;;;;;6.10;99.90;;;;;;5034048;28;19913;-74
2022/03/31 01:13:40;;;;;;;;;;;6.10;99.90;;;;;;5035138;28;19913;-74
2022/03/31 01:16:05;;;;;;;;;;;6.20;99.90;;;;;;5035171;28;19909;-74
2022/03/31 01:18:31;;;;;;;;;;;6.20;99.90;;;;;;5035477;28;20262;-73
2022/03/31 01:20:56;;;;;;;;;;;6.20;99.90;;;;;;5035045;28;19913;-74
2022/03/31 01:23:22;;;;;;;;;;;6.20;99.90;;;;;;5034858;28;19940;-74
2022/03/31 01:25:48;;;;;;;;;;;6.20;99.90;;;;;;5035109;28;20000;-74
2022/03/31 01:28:13;;;;;;;;;;;6.20;99.90;;;;;;5035292;28;19940;-74
2022/03/31 01:30:39;;;;;;;;;;;6.20;99.90;;;;;;5034944;28;20297;-74
2022/03/31 01:33:04;;;;;;;;;;;6.20;99.90;;;;;;5034791;28;19948;-74
2022/03/31 01:35:30;;;;;;;;;;;6.20;99.90;;;;;;5035147;28;19913;-74
2022/03/31 01:37:55;;;;;;;;;;;6.20;99.90;;;;;;5034768;28;19909;-74
2022/03/31 01:40:21;;;;;;;;;;;6.10;99.90;;;;;;5034973;28;20250;-74
2022/03/31 01:42:46;;;;;;;;;;;6.10;99.90;;;;;;5034951;28;20400;-74
2022/03/31 01:45:14;;;;;;;;;;;6.10;99.90;;;;;;5034611;28;20004;-74
2022/03/31 01:47:40;;;;;;;;;;;6.10;99.90;;;;;;5034849;28;19959;-74
2022/03/31 01:50:09;;;;;;;;;;;6.10;99.90;;;;;;5034644;28;19916;-74
2022/03/31 01:52:35;;;;;;;;;;;6.00;99.90;;;;;;5034516;28;19932;-74
2022/03/31 01:55:00;;;;;;;;;;;5.90;99.90;;;;;;5033204;28;20413;-74
2022/03/31 01:57:26;;;;;;;;;;;5.80;99.90;;;;;;5034386;28;19992;-74
2022/03/31 01:59:51;;;;;;;;;;;5.70;99.90;;;;;;5034389;28;19909;-74
2022/03/31 02:02:18;;;;;;;;;;;5.60;99.90;;;;;;5033834;28;19913;-74
2022/03/31 02:04:43;;;;;;;;;;;5.60;99.90;;;;;;5034257;28;19955;-74
2022/03/31 02:07:09;;;;;;;;;;;5.50;99.90;;;;;;5032987;28;19913;-74
2022/03/31 02:09:35;;;;;;;;;;;5.50;99.90;;;;;;5034210;28;19909;-74
2022/03/31 02:12:01;;;;;;;;;;;5.60;99.90;;;;;;5034425;28;19917;-74
2022/03/31 02:14:27;;;;;;;;;;;5.60;99.90;;;;;;5034367;28;19916;-74
2022/03/31 02:16:52;;;;;;;;;;;5.60;99.90;;;;;;5034094;28;19909;-74
2022/03/31 02:19:18;;;;;;;;;;;5.60;99.90;;;;;;5034070;28;20362;-74
2022/03/31 02:21:44;;;;;;;;;;;5.60;99.90;;;;;;5034238;28;19928;-74
2022/03/31 02:24:09;;;;;;;;;;;5.60;99.90;;;;;;5033956;28;19990;-74
2022/03/31 02:26:35;;;;;;;;;;;5.70;99.90;;;;;;5033834;28;19924;-74
2022/03/31 02:29:03;;;;;;;;;;;5.70;99.90;;;;;;5033915;28;19920;-74
2022/03/31 02:31:28;;;;;;;;;;;5.70;99.90;;;;;;5034142;28;20020;-74
2022/03/31 02:33:55;;;;;;;;;;;5.70;99.90;;;;;;5034241;28;19909;-74
2022/03/31 02:36:20;;;;;;;;;;;5.70;99.90;;;;;;5033903;28;19923;-74
2022/03/31 02:38:46;;;;;;;;;;;5.70;99.90;;;;;;5034130;28;20015;-74
2022/03/31 02:41:12;;;;;;;;;;;5.70;99.90;;;;;;5034326;28;19909;-74
2022/03/31 02:43:37;;;;;;;;;;;5.70;99.90;;;;;;5033706;28;19916;-74
2022/03/31 02:46:03;;;;;;;;;;;5.70;99.90;;;;;;5034009;28;19959;-74
2022/03/31 02:48:28;;;;;;;;;;;5.60;99.90;;;;;;5034269;28;20273;-74
2022/03/31 02:50:54;;;;;;;;;;;5.60;99.90;;;;;;5034283;28;19919;-74
2022/03/31 02:56:03;;;;;;;;;;;5.50;99.90;;;;;;5034046;28;19916;-74
2022/03/31 02:58:29;;;;;;;;;;;5.40;99.90;;;;;;5033648;28;19909;-74
2022/03/31 03:00:55;;;;;;;;;;;5.30;99.90;;;;;;5033603;28;19909;-74
2022/03/31 03:03:20;;;;;;;;;;;5.30;99.90;;;;;;5035272;28;20392;-74
2022/03/31 03:05:46;;;;;;;;;;;5.20;99.90;;;;;;5038199;28;20354;-74
2022/03/31 03:08:15;;;;;;;;;;;5.30;99.90;;;;;;5038160;28;19915;-74
2022/03/31 03:10:41;;;;;;;;;;;5.30;99.90;;;;;;5037522;28;19913;-74
2022/03/31 03:13:07;;;;;;;;;;;5.30;99.90;;;;;;5037709;28;19952;-74
2022/03/31 03:15:33;;;;;;;;;;;5.40;99.90;;;;;;5037700;28;20280;-74
2022/03/31 03:17:58;;;;;;;;;;;5.30;99.90;;;;;;5037770;28;19923;-74
2022/03/31 03:20:24;;;;;;;;;;;5.40;99.90;;;;;;5037400;28;19975;-74
2022/03/31 03:22:51;;;;;;;;;;;5.40;99.90;;;;;;5037516;28;19919;-74
2022/03/31 03:25:18;;;;;;;;;;;5.40;99.90;;;;;;5037311;28;19920;-74
2022/03/31 03:27:45;;;;;;;;;;;5.40;99.90;;;;;;5037257;28;19921;-74
2022/03/31 03:30:10;;;;;;;;;;;5.40;99.90;;;;;;5037161;28;19963;-74
2022/03/31 03:32:36;;;;;;;;;;;5.40;99.90;;;;;;5037045;28;19909;-74
2022/03/31 03:35:10;;;;;;;;;;;5.30;99.90;;;;;;5038220;28;20262;-74
2022/03/31 03:37:36;;;;;;;;;;;5.30;99.90;;;;;;5036999;28;19909;-74
2022/03/31 03:40:02;;;;;;;;;;;5.20;99.90;;;;;;5036969;28;19913;-74
2022/03/31 03:42:29;;;;;;;;;;;5.20;99.90;;;;;;5036815;28;19913;-74
2022/03/31 03:44:54;;;;;;;;;;;5.20;99.90;;;;;;5036971;28;20392;-74
2022/03/31 03:47:21;;;;;;;;;;;5.20;99.90;;;;;;5037152;28;19909;-74
2022/03/31 03:49:46;;;;;;;;;;;5.10;99.90;;;;;;5036842;28;19913;-74
2022/03/31 03:52:12;;;;;;;;;;;5.10;99.90;;;;;;5037397;28;19909;-74
2022/03/31 03:54:38;;;;;;;;;;;5.10;99.90;;;;;;5036673;28;19916;-73
2022/03/31 03:57:04;;;;;;;;;;;5.00;99.90;;;;;;5037049;28;19932;-74
2022/03/31 03:59:29;;;;;;;;;;;5.10;99.90;;;;;;5036667;28;19940;-74
2022/03/31 04:01:55;;;;;;;;;;;5.10;99.90;;;;;;5036802;28;20369;-74
2022/03/31 04:04:21;;;;;;;;;;;5.10;99.90;;;;;;5037077;28;19920;-74
2022/03/31 04:06:46;;;;;;;;;;;5.10;99.90;;;;;;5036846;28;20300;-74
2022/03/31 04:09:12;;;;;;;;;;;5.10;99.90;;;;;;5036989;28;19909;-74
2022/03/31 04:11:37;;;;;;;;;;;5.10;99.90;;;;;;5037243;28;19909;-74
2022/03/31 04:14:03;;;;;;;;;;;5.10;99.90;;;;;;5035975;28;19916;-74
2022/03/31 04:16:29;;;;;;;;;;;5.10;99.90;;;;;;5035055;28;20277;-73
2022/03/31 04:18:54;;;;;;;;;;;5.20;99.90;;;;;;5036249;28;19962;-73
2022/03/31 04:21:20;;;;;;;;;;;5.20;99.90;;;;;;5036139;28;20365;-74
2022/03/31 04:23:45;;;;;;;;;;;5.20;99.90;;;;;;5036083;28;20270;-73
2022/03/31 04:26:11;;;;;;;;;;;5.20;99.90;;;;;;5034756;28;20370;-73
2022/03/31 04:28:36;;;;;;;;;;;5.20;99.90;;;;;;5036140;28;20424;-74
2022/03/31 04:31:02;;;;;;;;;;;5.20;99.90;;;;;;5035993;28;19909;-74
2022/03/31 04:33:29;;;;;;;;;;;5.20;99.90;;;;;;5036537;28;19941;-74
2022/03/31 04:35:54;;;;;;;;;;;5.20;99.90;;;;;;5035900;28;20381;-73
2022/03/31 04:38:20;;;;;;;;;;;5.20;99.90;;;;;;5036176;28;20004;-74
2022/03/31 04:40:47;;;;;;;;;;;5.20;99.90;;;;;;5035875;28;19940;-74
2022/03/31 04:43:13;;;;;;;;;;;5.20;99.90;;;;;;5035081;28;19913;-74
2022/03/31 04:45:39;;;;;;;;;;;5.30;99.90;;;;;;5036004;28;19924;-74
2022/03/31 04:48:05;;;;;;;;;;;5.30;99.90;;;;;;5036056;28;19909;-74
2022/03/31 04:50:30;;;;;;;;;;;5.30;99.90;;;;;;5035706;28;20003;-74
2022/03/31 04:52:56;;;;;;;;;;;5.30;99.90;;;;;;5035591;28;19909;-74
2022/03/31 04:55:21;;;;;;;;;;;5.30;99.90;;;;;;5035897;28;19909;-73
2022/03/31 04:57:47;;;;;;;;;;;5.40;99.90;;;;;;5035552;28;19910;-74
2022/03/31 05:00:13;;;;;;;;;;;5.40;99.90;;;;;;5034281;28;20006;-74
2022/03/31 05:02:39;;;;;;;;;;;5.30;99.90;;;;;;5035611;28;19960;-74
2022/03/31 05:05:04;;;;;;;;;;;5.40;99.90;;;;;;5035668;28;19944;-74
2022/03/31 05:07:30;;;;;;;;;;;5.40;99.90;;;;;;5035673;28;19916;-74
2022/03/31 05:09:56;;;;;;;;;;;5.30;99.90;;;;;;5035929;28;20281;-75
2022/03/31 05:12:21;;;;;;;;;;;5.30;99.90;;;;;;5035239;28;19916;-74
2022/03/31 05:14:47;;;;;;;;;;;5.30;99.90;;;;;;5035247;28;19909;-75
2022/03/31 05:17:12;;;;;;;;;;;5.30;99.90;;;;;;5035460;28;19911;-74
2022/03/31 05:19:38;;;;;;;;;;;5.30;99.90;;;;;;5034351;28;19917;-74
2022/03/31 05:22:04;;;;;;;;;;;5.30;99.90;;;;;;5034999;28;19983;-73
2022/03/31 05:24:30;;;;;;;;;;;5.40;99.90;;;;;;5035284;28;19959;-73
2022/03/31 05:26:56;;;;;;;;;;;5.40;99.90;;;;;;5034203;28;19916;-73
2022/03/31 05:29:22;;;;;;;;;;;5.40;99.90;;;;;;5035190;28;19916;-73
2022/03/31 05:31:48;;;;;;;;;;;5.40;99.90;;;;;;5034882;28;19909;-73
2022/03/31 05:34:13;;;;;;;;;;;5.30;99.90;;;;;;5034792;28;19943;-73
2022/03/31 05:36:39;;;;;;;;;;;5.30;99.90;;;;;;5034765;28;19950;-73
2022/03/31 05:39:05;;;;;;;;;;;5.30;99.90;;;;;;5034745;28;20043;-73
2022/03/31 05:41:30;;;;;;;;;;;5.30;99.90;;;;;;5034853;28;19966;-73
2022/03/31 05:43:56;;;;;;;;;;;5.30;99.90;;;;;;5034614;28;19976;-73
2022/03/31 05:46:22;;;;;;;;;;;5.30;99.90;;;;;;5034930;28;20063;-73
2022/03/31 05:48:48;;;;;;;;;;;5.20;99.90;;;;;;5034911;28;19909;-73
2022/03/31 05:51:13;;;;;;;;;;;5.20;99.90;;;;;;5034509;28;19916;-73
2022/03/31 05:53:39;;;;;;;;;;;5.20;99.90;;;;;;5034987;28;19944;-73
2022/03/31 05:56:05;;;;;;;;;;;5.30;99.90;;;;;;5034464;28;20280;-73
2022/03/31 05:58:30;;;;;;;;;;;5.30;99.90;;;;;;5034375;28;19913;-73
2022/03/31 06:00:56;;;;;;;;;;;5.30;99.90;;;;;;5033902;28;19984;-73
2022/03/31 06:03:23;;;;;;;;;;;5.30;99.90;;;;;;5032917;28;19982;-73
2022/03/31 06:05:52;;;;;;;;;;;5.30;99.90;;;;;;5032920;28;20443;-74
2022/03/31 06:08:17;;;;;;;;;;;5.30;99.90;;;;;;5034488;28;19909;-73
2022/03/31 06:10:44;;;;;;;;;;;5.30;99.90;;;;;;5032935;28;19964;-73
2022/03/31 06:13:09;;;;;;;;;;;5.30;99.90;;;;;;5034092;28;19964;-73
2022/03/31 06:15:35;;;;;;;;;;;5.30;99.90;;;;;;5034948;28;19945;-73
2022/03/31 06:18:01;;;;;;;;;;;5.30;99.90;;;;;;5034125;28;19913;-73
2022/03/31 06:20:28;;;;;;;;;;;5.40;99.90;;;;;;5032908;28;19909;-73
2022/03/31 06:22:54;;;;;;;;;;;5.40;99.90;;;;;;5034134;28;19935;-73
2022/03/31 06:25:20;;;;;;;;;;;5.40;99.90;;;;;;5034037;28;20361;-74
2022/03/31 06:27:46;;;;;;;;;;;5.40;99.90;;;;;;5034632;28;20376;-74
2022/03/31 06:30:12;;;;;;;;;;;5.40;99.90;;;;;;5034056;28;19916;-74
2022/03/31 06:32:38;;;;;;;;;;;5.40;99.90;;;;;;5033864;28;19910;-73
2022/03/31 06:35:04;;;;;;;;;;;5.40;99.90;;;;;;5034002;28;19917;-74
2022/03/31 06:37:30;;;;;;;;;;;5.40;99.90;;;;;;5034036;28;19955;-74
2022/03/31 06:39:55;;;;;;;;;;;5.40;99.90;;;;;;5034480;28;19916;-74
2022/03/31 06:42:21;;;;;;;;;;;5.40;99.90;;;;;;5033702;28;19923;-74
2022/03/31 06:44:47;;;;;;;;;;;5.40;99.90;;;;;;5033805;28;19959;-74
2022/03/31 06:47:12;;;;;;;;;;;5.40;99.90;;;;;;5034079;28;19909;-74
2022/03/31 06:49:38;;;;;;;;;;;5.40;99.90;;;;;;5034351;28;19910;-74
2022/03/31 06:52:04;;;;;;;;;;;5.40;99.90;;;;;;5034070;28;19947;-74
2022/03/31 06:54:31;;;;;;;;;;;5.50;99.90;;;;;;5034001;28;19910;-74
2022/03/31 06:56:57;;;;;;;;;;;5.50;99.90;;;;;;5033763;28;19909;-75
2022/03/31 06:59:23;;;;;;;;;;;5.50;99.90;;;;;;5033985;28;19916;-75
2022/03/31 07:01:48;;;;;;;;;;;5.60;99.90;;;;;;5033856;28;20008;-75
2022/03/31 07:04:17;;;;;;;;;;;5.60;99.90;;;;;;5033987;28;20010;-75
2022/03/31 07:06:43;;;;;;;;;;;5.60;99.90;;;;;;5034204;28;19909;-75
2022/03/31 07:09:09;;;;;;;;;;;5.70;99.90;;;;;;5033958;28;19909;-76
2022/03/31 07:11:34;;;;;;;;;;;5.70;99.90;;;;;;5033690;28;19909;-75
2022/03/31 07:14:04;;;;;;;;;;;5.70;99.90;;;;;;5033599;28;19991;-75
2022/03/31 07:16:31;;;;;;;;;;;5.70;99.90;;;;;;5034105;28;20274;-74
2022/03/31 07:18:57;;;;;;;;;;;5.70;99.90;;;;;;5034125;28;19913;-75
2022/03/31 07:21:23;;;;;;;;;;;5.70;99.90;;;;;;5033744;28;20281;-75
2022/03/31 07:23:50;;;;;;;;;;;5.80;99.90;;;;;;5033398;28;19996;-75
2022/03/31 07:26:16;;;;;;;;;;;5.80;99.90;;;;;;5033337;28;20285;-75
2022/03/31 07:28:41;;;;;;;;;;;5.80;99.90;;;;;;5033490;28;19913;-75
2022/03/31 07:31:07;;;;;;;;;;;5.80;99.90;;;;;;5033357;28;19937;-75
2022/03/31 07:33:33;;;;;;;;;;;5.90;99.90;;;;;;5033519;28;19964;-75
2022/03/31 07:35:58;;;;;;;;;;;5.90;99.90;;;;;;5033674;28;19909;-75
2022/03/31 07:38:24;;;;;;;;;;;5.90;99.90;;;;;;5033437;28;19916;-73
2022/03/31 07:40:50;;;;;;;;;;;5.90;99.90;;;;;;5033601;28;19909;-75
2022/03/31 07:43:15;;;;;;;;;;;6.00;99.90;;;;;;5032321;28;19921;-75
2022/03/31 07:45:41;;;;;;;;;;;6.10;99.90;;;;;;5033608;28;19913;-76
2022/03/31 07:48:08;;;;;;;;;;;6.30;99.90;;;;;;5033311;28;19909;-76
2022/03/31 07:50:34;;;;;;;;;;;6.40;99.90;;;;;;5036559;28;19909;-75
2022/03/31 07:53:00;;;;;;;;;;;6.50;99.90;;;;;;5037112;28;19996;-75
2022/03/31 07:55:26;;;;;;;;;;;6.60;99.90;;;;;;5037104;28;19932;-75
2022/03/31 07:57:53;;;;;;;;;;;6.70;99.90;;;;;;5035837;28;20343;-76
2022/03/31 08:00:20;;;;;;;;;;;6.70;99.90;;;;;;5036996;28;19909;-75
2022/03/31 08:02:47;;;;;;;;;;;6.80;99.90;;;;;;5036801;28;19913;-75
2022/03/31 08:05:15;;;;;;;;;;;6.90;99.90;;;;;;5036845;28;20388;-75
2022/03/31 08:07:40;;;;;;;;;;;6.90;99.90;;;;;;5036595;28;19916;-75
2022/03/31 08:10:06;;;;;;;;;;;7.00;99.90;;;;;;5035257;28;20289;-75
2022/03/31 08:12:34;;;;;;;;;;;7.00;99.90;;;;;;5036361;28;19917;-75
2022/03/31 08:14:59;;;;;;;;;;;7.00;99.90;;;;;;5036402;28;19916;-75
2022/03/31 08:17:25;;;;;;;;;;;7.10;99.90;;;;;;5036370;28;19909;-75
2022/03/31 08:19:50;;;;;;;;;;;7.00;99.90;;;;;;5035015;28;19996;-75
2022/03/31 08:22:17;;;;;;;;;;;6.90;99.90;;;;;;5036210;28;19914;-75
2022/03/31 08:24:43;;;;;;;;;;;6.90;99.90;;;;;;5036169;28;19916;-73
2022/03/31 08:27:09;;;;;;;;;;;6.90;99.90;;;;;;5035138;28;19917;-73
2022/03/31 08:29:35;;;;;;;;;;;6.90;99.90;;;;;;5036824;28;19909;-73
2022/03/31 08:32:01;;;;;;;;;;;6.90;99.90;;;;;;5036187;28;20368;-73
2022/03/31 08:34:27;;;;;;;;;;;6.90;99.90;;;;;;5036146;28;19959;-72
2022/03/31 08:36:52;;;;;;;;;;;7.00;99.90;;;;;;5036150;28;20319;-73
2022/03/31 08:39:18;;;;;;;;;;;7.00;99.90;;;;;;5035852;28;20262;-73
2022/03/31 08:41:44;;;;;;;;;;;7.10;99.90;;;;;;5035826;28;19913;-73
2022/03/31 08:44:14;;;;;;;;;;;7.10;99.90;;;;;;5035850;28;19932;-72
2022/03/31 08:46:39;;;;;;;;;;;7.20;99.90;;;;;;5034355;28;19913;-73
2022/03/31 08:49:06;;;;;;;;;;;7.20;99.90;;;;;;5036016;28;20063;-72
2022/03/31 08:51:32;;;;;;;;;;;7.30;99.90;;;;;;5035647;28;19909;-72
2022/03/31 08:53:58;;;;;;;;;;;7.20;99.90;;;;;;5035652;28;19909;-72
2022/03/31 08:56:23;;;;;;;;;;;7.20;99.90;;;;;;5035819;28;19916;-73
2022/03/31 08:58:49;;;;;;;;;;;7.10;99.90;;;;;;5035874;28;19910;-73
2022/03/31 09:01:15;;;;;;;;;;;7.10;99.90;;;;;;5034514;28;19996;-73
2022/03/31 09:03:41;;;;;;;;;;;7.10;99.90;;;;;;5035379;28;19932;-72
2022/03/31 09:06:08;;;;;;;;;;;7.20;99.90;;;;;;5035449;28;19909;-73
2022/03/31 09:08:34;;;;;;;;;;;7.30;99.90;;;;;;5035409;28;19996;-72
2022/03/31 09:11:00;;;;;;;;;;;7.30;99.90;;;;;;5035734;28;20392;-73
2022/03/31 09:13:36;;;;;;;;;;;7.40;99.90;;;;;;5035259;28;19932;-72
2022/03/31 09:16:03;;;;;;;;;;;7.50;99.90;;;;;;5035608;28;19963;-73
2022/03/31 09:18:30;;;;;;;;;;;7.50;99.90;;;;;;5035134;28;20012;-74
2022/03/31 09:20:57;;;;;;;;;;;7.50;99.90;;;;;;5035462;28;19913;-73
2022/03/31 09:23:27;;;;;;;;;;;7.50;99.90;;;;;;5035239;28;19913;-73
2022/03/31 09:26:00;;;;;;;;;;;7.60;99.90;;;;;;5033986;28;20284;-73
2022/03/31 09:28:26;;;;;;;;;;;7.60;99.90;;;;;;5035052;28;19920;-73
2022/03/31 09:30:52;;;;;;;;;;;7.60;99.90;;;;;;5033657;28;19913;-73
2022/03/31 09:33:30;;;;;;;;;;;7.50;99.90;;;;;;5035414;28;19909;-73
2022/03/31 09:36:00;;;;;;;;;;;7.50;99.90;;;;;;5034887;28;19910;-74
2022/03/31 09:38:26;;;;;;;;;;;7.40;99.90;;;;;;5035134;28;19955;-73
2022/03/31 09:40:52;;;;;;;;;;;7.40;99.90;;;;;;5035116;28;20344;-74
2022/03/31 09:43:18;;;;;;;;;;;7.50;99.90;;;;;;5034853;28;19913;-73
2022/03/31 09:45:44;;;;;;;;;;;7.60;99.90;;;;;;5034996;28;19932;-73
2022/03/31 09:48:20;;;;;;;;;;;7.60;99.90;;;;;;5034655;28;20280;-73
2022/03/31 09:50:45;;;;;;;;;;;7.70;99.90;;;;;;5033392;28;20385;-73
2022/03/31 09:53:11;;;;;;;;;;;7.70;99.90;;;;;;5034475;28;19936;-72
2022/03/31 09:55:38;;;;;;;;;;;7.80;99.90;;;;;;5035107;28;19909;-73
2022/03/31 09:58:06;;;;;;;;;;;7.90;99.90;;;;;;5034752;28;19916;-73
2022/03/31 10:00:32;;;;;;;;;;;7.90;99.90;;;;;;5034679;28;19913;-73
2022/03/31 10:02:59;;;;;;;;;;;8.00;99.90;;;;;;5034493;28;20270;-72
2022/03/31 10:05:26;;;;;;;;;;;8.10;99.90;;;;;;5034960;28;19909;-72
2022/03/31 10:07:52;;;;;;;;;;;8.10;99.90;;;;;;5034364;28;19913;-72
2022/03/31 10:10:18;;;;;;;;;;;8.20;99.90;;;;;;5035218;28;19960;-72
2022/03/31 10:12:47;;;;;;;;;;;8.30;99.90;;;;;;5034805;28;19917;-73
2022/03/31 10:15:22;;;;;;;;;;;8.30;99.90;;;;;;5034961;28;19909;-73
2022/03/31 10:17:49;;;;;;;;;;;8.40;99.90;;;;;;5034697;28;20048;-72
2022/03/31 10:20:15;;;;;;;;;;;8.50;99.90;;;;;;5034038;28;20281;-72
2022/03/31 10:25:36;;;;;;;;;;;8.50;99.90;;;;;;5034468;28;19979;-73
2022/03/31 10:28:12;;;;;;;;;;;8.40;99.90;;;;;;5034137;28;19913;-73
2022/03/31 10:30:38;;;;;;;;;;;8.30;99.90;;;;;;5034168;28;19913;-72
2022/03/31 10:33:04;;;;;;;;;;;8.40;99.90;;;;;;5033877;28;19913;-71
2022/03/31 10:35:35;;;;;;;;;;;8.50;99.90;;;;;;5032925;28;19959;-72
2022/03/31 10:38:12;;;;;;;;;;;8.50;99.90;;;;;;5033873;28;19909;-72
2022/03/31 10:40:38;;;;;;;;;;;8.50;99.90;;;;;;5033933;28;19909;-72
2022/03/31 10:43:05;;;;;;;;;;;8.50;99.90;;;;;;5033892;28;19913;-72
2022/03/31 10:45:38;;;;;;;;;;;8.50;99.90;;;;;;5033721;28;19913;-73
2022/03/31 10:48:14;;;;;;;;;;;8.50;99.90;;;;;;5034093;28;19955;-72
2022/03/31 10:50:40;;;;;;;;;;;8.50;99.90;;;;;;5034398;28;19913;-73
2022/03/31 10:53:05;;;;;;;;;;;8.40;99.90;;;;;;5033679;28;19909;-73
2022/03/31 10:55:40;;;;;;;;;;;8.40;99.90;;;;;;5033663;28;19913;-72
2022/03/31 10:58:06;;;;;;;;;;;8.40;99.90;;;;;;5033926;28;19947;-72
2022/03/31 11:00:31;;;;;;;;;;;8.40;99.90;;;;;;5033741;28;20353;-73
2022/03/31 11:02:57;;;;;;;;;;;8.40;99.90;;;;;;5032290;28;19921;-72
2022/03/31 11:05:23;;;;;;;;;;;8.30;99.90;;;;;;5032333;28;19959;-72
2022/03/31 11:07:48;;;;;;;;;;;8.30;99.90;;;;;;5033926;28;19996;-73
2022/03/31 11:10:17;;;;;;;;;;;8.30;99.90;;;;;;5034191;28;19916;-73
2022/03/31 11:12:42;;;;;;;;;;;8.30;99.90;;;;;;5032185;28;20277;-73
2022/03/31 11:15:10;;;;;;;;;;;8.20;99.90;;;;;;5033850;28;19909;-72
2022/03/31 11:17:36;;;;;;;;;;;8.20;99.90;;;;;;5033758;28;19944;-73
2022/03/31 11:20:12;;;;;;;;;;;8.20;99.90;;;;;;5034260;28;19913;-73
2022/03/31 11:22:37;;;;;;;;;;;8.10;99.90;;;;;;5033574;28;19920;-72
2022/03/31 11:25:10;;;;;;;;;;;8.10;99.90;;;;;;5036490;28;19905;-72
2022/03/31 11:27:36;;;;;;;;;;;8.20;99.90;;;;;;5037285;28;20345;-73
2022/03/31 11:30:13;;;;;;;;;;;8.20;99.90;;;;;;5036000;28;19910;-73
2022/03/31 11:32:39;;;;;;;;;;;8.10;99.90;;;;;;5035934;28;19909;-73
2022/03/31 11:35:09;;;;;;;;;;;8.10;99.90;;;;;;5037424;28;19905;-72
2022/03/31 11:37:35;;;;;;;;;;;8.20;99.90;;;;;;5037382;28;19909;-72
2022/03/31 11:40:00;;;;;;;;;;;8.20;99.90;;;;;;5037620;28;19963;-72
2022/03/31 11:42:26;;;;;;;;;;;8.20;99.90;;;;;;5036845;28;19928;-72
2022/03/31 11:44:52;;;;;;;;;;;8.20;99.90;;;;;;5037264;28;19916;-72
2022/03/31 11:47:20;;;;;;;;;;;8.20;99.90;;;;;;5037556;28;20254;-73
2022/03/31 11:49:55;;;;;;;;;;;8.10;99.90;;;;;;5037063;28;19909;-73
2022/03/31 11:52:27;;;;;;;;;;;8.10;99.90;;;;;;5037003;28;19917;-72
2022/03/31 11:54:53;;;;;;;;;;;8.10;99.90;;;;;;5036725;28;19913;-72
2022/03/31 11:57:19;;;;;;;;;;;8.10;99.90;;;;;;5036674;28;19996;-73
2022/03/31 11:59:44;;;;;;;;;;;8.10;99.90;;;;;;5036981;28;19909;-73
2022/03/31 12:02:13;;;;;;;;;;;8.10;99.90;;;;;;5036509;28;19935;-73
2022/03/31 12:04:42;;;;;;;;;;;8.00;99.90;;;;;;5035197;28;19910;-73
2022/03/31 12:07:09;;;;;;;;;;;8.00;99.90;;;;;;5036505;28;19909;-73
2022/03/31 12:09:37;;;;;;;;;;;8.00;99.90;;;;;;5036384;28;19916;-72
2022/03/31 12:12:03;;;;;;;;;;;8.00;99.90;;;;;;5036654;28;20353;-73
2022/03/31 12:14:30;;;;;;;;;;;8.00;99.90;;;;;;5036316;28;20000;-73
2022/03/31 12:16:57;;;;;;;;;;;8.10;99.90;;;;;;5036699;28;19940;-73
2022/03/31 12:19:22;;;;;;;;;;;8.10;99.90;;;;;;5036644;28;19909;-73
2022/03/31 12:21:50;;;;;;;;;;;8.10;99.90;;;;;;5036207;28;19963;-73
2022/03/31 12:24:17;;;;;;;;;;;8.10;99.90;;;;;;5036411;28;19910;-72
2022/03/31 12:26:56;;;;;;;;;;;8.10;99.90;;;;;;5036145;28;19917;-72
2022/03/31 12:29:25;;;;;;;;;;;8.10;99.90;;;;;;5036175;28;19996;-72
2022/03/31 12:32:03;;;;;;;;;;;8.20;99.90;;;;;;5036150;28;19909;-72
2022/03/31 12:34:29;;;;;;;;;;;8.20;99.90;;;;;;5035831;28;19916;-72
2022/03/31 12:36:54;;;;;;;;;;;8.20;99.90;;;;;;5035983;28;19917;-72
2022/03/31 12:39:20;;;;;;;;;;;8.20;99.90;;;;;;5035978;28;19909;-72
2022/03/31 12:41:49;;;;;;;;;;;8.30;99.90;;;;;;5035869;28;19909;-72
2022/03/31 12:44:16;;;;;;;;;;;8.20;99.90;;;;;;5036158;28;19909;-73
2022/03/31 12:46:52;;;;;;;;;;;8.30;99.90;;;;;;5036151;28;19909;-72
2022/03/31 12:49:19;;;;;;;;;;;8.30;99.90;;;;;;5035809;28;19909;-72
2022/03/31 12:51:49;;;;;;;;;;;8.30;99.90;;;;;;5036041;28;19992;-72
2022/03/31 12:54:18;;;;;;;;;;;8.50;99.90;;;;;;5035663;28;19909;-72
2022/03/31 12:56:48;;;;;;;;;;;8.50;99.90;;;;;;5035877;28;20350;-71
2022/03/31 12:59:17;;;;;;;;;;;8.60;99.90;;;;;;5035891;28;19916;-72
2022/03/31 13:01:53;;;;;;;;;;;8.60;99.90;;;;;;5036086;28;19910;-72
2022/03/31 13:04:18;;;;;;;;;;;8.70;99.90;;;;;;5035444;28;19909;-72
2022/03/31 13:06:44;;;;;;;;;;;8.70;99.90;;;;;;5035437;28;19910;-72
2022/03/31 13:09:10;;;;;;;;;;;8.80;99.90;;;;;;5035814;28;19909;-73
2022/03/31 13:11:35;;;;;;;;;;;8.80;99.90;;;;;;5035678;28;19915;-73
2022/03/31 13:14:01;;;;;;;;;;;8.80;99.90;;;;;;5035245;28;19919;-72
2022/03/31 13:16:27;;;;;;;;;;;8.90;99.90;;;;;;5035548;28;19916;-73
2022/03/31 13:18:53;;;;;;;;;;;8.90;99.90;;;;;;5035435;28;19909;-73
2022/03/31 13:21:19;;;;;;;;;;;8.80;99.90;;;;;;5035195;28;19932;-73
2022/03/31 13:23:44;;;;;;;;;;;8.90;99.90;;;;;;5034916;28;20293;-72
2022/03/31 13:26:10;;;;;;;;;;;8.80;99.90;;;;;;5035112;28;19968;-73
2022/03/31 13:28:36;;;;;;;;;;;8.80;99.90;;;;;;5035307;28;19916;-72
2022/03/31 13:31:02;;;;;;;;;;;8.80;99.90;;;;;;5035197;28;19913;-73
2022/03/31 13:33:28;;;;;;;;;;;8.80;99.90;;;;;;5034860;28;19913;-72
2022/03/31 13:35:53;;;;;;;;;;;8.80;99.90;;;;;;5035194;28;19909;-72
2022/03/31 13:38:19;;;;;;;;;;;8.80;99.90;;;;;;5034846;28;19913;-72
2022/03/31 13:40:44;;;;;;;;;;;8.80;99.90;;;;;;5034788;28;19959;-72
2022/03/31 13:43:10;;;;;;;;;;;8.80;99.90;;;;;;5034924;28;19920;-72
2022/03/31 13:45:35;;;;;;;;;;;8.80;99.90;;;;;;5033457;28;19909;-73
2022/03/31 13:48:02;;;;;;;;;;;8.70;99.90;;;;;;5034095;28;19979;-72
2022/03/31 13:50:27;;;;;;;;;;;8.70;99.90;;;;;;5034900;28;20272;-73
2022/03/31 13:55:37;;;;;;;;;;;8.70;99.90;;;;;;5035187;28;20360;-72
2022/03/31 14:03:32;;;;;;;;;;;8.50;99.90;;;;;;5034321;28;20432;-72
2022/03/31 14:05:58;;;;;;;;;;;8.50;99.90;;;;;;5034572;28;19909;-72
2022/03/31 14:08:23;;;;;;;;;;;8.50;99.90;;;;;;5034273;28;19909;-72
2022/03/31 14:10:49;;;;;;;;;;;8.50;99.90;;;;;;5034573;28;20272;-73
2022/03/31 14:13:14;;;;;;;;;;;8.40;99.90;;;;;;5034759;28;19948;-73
2022/03/31 14:15:41;;;;;;;;;;;8.30;99.90;;;;;;5034453;28;19913;-72
2022/03/31 14:18:07;;;;;;;;;;;8.40;99.90;;;;;;5032938;28;20426;-72
2022/03/31 14:20:34;;;;;;;;;;;8.40;99.90;;;;;;5034251;28;20266;-72
2022/03/31 14:23:02;;;;;;;;;;;8.30;99.90;;;;;;5033970;28;20380;-72
2022/03/31 14:25:27;;;;;;;;;;;8.20;99.90;;;;;;5032672;28;19909;-72
2022/03/31 14:27:53;;;;;;;;;;;8.20;99.90;;;;;;5034566;28;19920;-73
2022/03/31 14:30:19;;;;;;;;;;;8.10;99.90;;;;;;5034017;28;19971;-72
2022/03/31 14:32:44;;;;;;;;;;;8.10;99.90;;;;;;5033863;28;19971;-72
2022/03/31 14:35:10;;;;;;;;;;;8.10;99.90;;;;;;5033899;28;19909;-72
2022/03/31 14:37:36;;;;;;;;;;;8.10;99.90;;;;;;5034078;28;19988;-72
2022/03/31 14:40:02;;;;;;;;;;;8.00;99.90;;;;;;5033800;28;19924;-72